sensor_id;sensor_type;location;lat;lon;timestamp;P1;durP1;ratioP1;P2;durP2;ratioP2
77955;SDS011;67152;36.266;32.294;2023-11-18T00:00:10;10.80;;;3.38;;
77955;SDS011;67152;36.266;32.294;2023-11-18T00:02:57;9.35;;;3.90;;
77955;SDS011;67152;36.266;32.294;2023-11-18T00:05:42;8.25;;;2.97;;
77955;SDS011;67152;36.266;32.294;2023-11-18T00:08:27;9.73;;;2.92;;
77955;SDS011;67152;36.266;32.294;2023-11-18T00:11:12;9.98;;;3.88;;
77955;SDS011;67152;36.266;32.294;2023-11-18T00:13:57;9.35;;;4.10;;
77955;SDS011;67152;36.266;32.294;2023-11-18T00:16:43;11.90;;;3.75;;
77955;SDS011;67152;36.266;32.294;2023-11-18T00:19:28;8.07;;;3.17;;
77955;SDS011;67152;36.266;32.294;2023-11-18T00:22:13;7.75;;;3.65;;
77955;SDS011;67152;36.266;32.294;2023-11-18T00:24:58;6.10;;;2.63;;
77955;SDS011;67152;36.266;32.294;2023-11-18T00:27:43;6.20;;;2.30;;
77955;SDS011;67152;36.266;32.294;2023-11-18T00:30:28;11.25;;;2.30;;
77955;SDS011;67152;36.266;32.294;2023-11-18T00:33:13;4.57;;;1.90;;
77955;SDS011;67152;36.266;32.294;2023-11-18T00:35:58;5.00;;;2.00;;
77955;SDS011;67152;36.266;32.294;2023-11-18T00:38:44;7.03;;;2.25;;
77955;SDS011;67152;36.266;32.294;2023-11-18T00:41:29;5.80;;;2.38;;
77955;SDS011;67152;36.266;32.294;2023-11-18T00:44:14;11.40;;;2.42;;
77955;SDS011;67152;36.266;32.294;2023-11-18T00:46:59;5.43;;;2.10;;
77955;SDS011;67152;36.266;32.294;2023-11-18T00:49:45;3.83;;;1.77;;
77955;SDS011;67152;36.266;32.294;2023-11-18T00:52:30;5.07;;;2.03;;
77955;SDS011;67152;36.266;32.294;2023-11-18T00:55:15;7.55;;;2.40;;
77955;SDS011;67152;36.266;32.294;2023-11-18T00:58:04;3.47;;;1.95;;
77955;SDS011;67152;36.266;32.294;2023-11-18T01:00:50;5.82;;;1.80;;
77955;SDS011;67152;36.266;32.294;2023-11-18T01:03:35;9.32;;;1.60;;
77955;SDS011;67152;36.266;32.294;2023-11-18T01:06:19;3.63;;;1.88;;
77955;SDS011;67152;36.266;32.294;2023-11-18T01:09:06;8.70;;;2.30;;
77955;SDS011;67152;36.266;32.294;2023-11-18T01:11:51;6.50;;;2.58;;
77955;SDS011;67152;36.266;32.294;2023-11-18T01:14:36;5.28;;;2.20;;
77955;SDS011;67152;36.266;32.294;2023-11-18T01:17:22;4.82;;;1.10;;
77955;SDS011;67152;36.266;32.294;2023-11-18T01:20:07;6.22;;;1.88;;
77955;SDS011;67152;36.266;32.294;2023-11-18T01:22:55;5.60;;;1.20;;
77955;SDS011;67152;36.266;32.294;2023-11-18T01:25:40;7.75;;;1.75;;
77955;SDS011;67152;36.266;32.294;2023-11-18T01:28:26;5.90;;;1.95;;
77955;SDS011;67152;36.266;32.294;2023-11-18T01:31:17;4.82;;;1.30;;
77955;SDS011;67152;36.266;32.294;2023-11-18T01:34:03;3.85;;;1.60;;
77955;SDS011;67152;36.266;32.294;2023-11-18T01:36:50;3.40;;;1.40;;
77955;SDS011;67152;36.266;32.294;2023-11-18T01:39:37;2.95;;;1.98;;
77955;SDS011;67152;36.266;32.294;2023-11-18T01:42:23;8.18;;;1.95;;
77955;SDS011;67152;36.266;32.294;2023-11-18T01:45:10;7.85;;;1.60;;
77955;SDS011;67152;36.266;32.294;2023-11-18T01:47:57;3.30;;;1.60;;
77955;SDS011;67152;36.266;32.294;2023-11-18T01:50:43;4.10;;;1.75;;
77955;SDS011;67152;36.266;32.294;2023-11-18T01:53:31;4.13;;;1.55;;
77955;SDS011;67152;36.266;32.294;2023-11-18T01:56:17;4.80;;;1.40;;
77955;SDS011;67152;36.266;32.294;2023-11-18T01:59:05;5.28;;;1.20;;
77955;SDS011;67152;36.266;32.294;2023-11-18T02:01:53;2.85;;;1.52;;
77955;SDS011;67152;36.266;32.294;2023-11-18T02:04:42;6.10;;;1.88;;
77955;SDS011;67152;36.266;32.294;2023-11-18T02:07:28;3.30;;;2.10;;
77955;SDS011;67152;36.266;32.294;2023-11-18T02:10:14;6.13;;;2.50;;
77955;SDS011;67152;36.266;32.294;2023-11-18T02:13:11;3.53;;;1.92;;
77955;SDS011;67152;36.266;32.294;2023-11-18T02:15:59;3.80;;;2.00;;
77955;SDS011;67152;36.266;32.294;2023-11-18T02:18:44;5.50;;;1.40;;
77955;SDS011;67152;36.266;32.294;2023-11-18T02:21:29;6.07;;;1.58;;
77955;SDS011;67152;36.266;32.294;2023-11-18T02:24:27;5.25;;;1.77;;
77955;SDS011;67152;36.266;32.294;2023-11-18T02:27:14;10.25;;;2.22;;
77955;SDS011;67152;36.266;32.294;2023-11-18T02:29:59;5.30;;;2.28;;
77955;SDS011;67152;36.266;32.294;2023-11-18T02:32:45;4.43;;;2.30;;
77955;SDS011;67152;36.266;32.294;2023-11-18T02:35:40;4.20;;;2.15;;
77955;SDS011;67152;36.266;32.294;2023-11-18T02:38:33;6.25;;;1.63;;
77955;SDS011;67152;36.266;32.294;2023-11-18T02:41:20;3.75;;;1.90;;
77955;SDS011;67152;36.266;32.294;2023-11-18T02:44:07;10.23;;;1.90;;
77955;SDS011;67152;36.266;32.294;2023-11-18T02:46:54;4.78;;;1.98;;
77955;SDS011;67152;36.266;32.294;2023-11-18T02:49:39;7.07;;;2.05;;
77955;SDS011;67152;36.266;32.294;2023-11-18T02:52:24;3.88;;;2.00;;
77955;SDS011;67152;36.266;32.294;2023-11-18T02:55:09;8.13;;;2.00;;
77955;SDS011;67152;36.266;32.294;2023-11-18T02:57:55;9.40;;;2.28;;
77955;SDS011;67152;36.266;32.294;2023-11-18T03:00:40;5.38;;;2.30;;
77955;SDS011;67152;36.266;32.294;2023-11-18T03:03:26;4.22;;;2.10;;
77955;SDS011;67152;36.266;32.294;2023-11-18T03:06:14;5.85;;;2.47;;
77955;SDS011;67152;36.266;32.294;2023-11-18T03:08:58;4.55;;;2.35;;
77955;SDS011;67152;36.266;32.294;2023-11-18T03:11:43;5.22;;;1.63;;
77955;SDS011;67152;36.266;32.294;2023-11-18T03:14:28;11.35;;;2.35;;
77955;SDS011;67152;36.266;32.294;2023-11-18T03:17:13;8.10;;;2.25;;
77955;SDS011;67152;36.266;32.294;2023-11-18T03:19:58;3.03;;;1.80;;
77955;SDS011;67152;36.266;32.294;2023-11-18T03:22:44;10.98;;;2.30;;
77955;SDS011;67152;36.266;32.294;2023-11-18T03:25:29;3.45;;;1.77;;
77955;SDS011;67152;36.266;32.294;2023-11-18T03:28:14;4.70;;;1.80;;
77955;SDS011;67152;36.266;32.294;2023-11-18T03:30:59;3.78;;;1.70;;
77955;SDS011;67152;36.266;32.294;2023-11-18T03:33:44;4.25;;;1.88;;
77955;SDS011;67152;36.266;32.294;2023-11-18T03:36:28;4.78;;;2.20;;
77955;SDS011;67152;36.266;32.294;2023-11-18T03:39:13;5.60;;;1.45;;
77955;SDS011;67152;36.266;32.294;2023-11-18T03:41:58;3.10;;;1.75;;
77955;SDS011;67152;36.266;32.294;2023-11-18T03:44:44;10.63;;;2.28;;
77955;SDS011;67152;36.266;32.294;2023-11-18T03:47:32;4.18;;;1.90;;
77955;SDS011;67152;36.266;32.294;2023-11-18T03:50:18;7.25;;;2.15;;
77955;SDS011;67152;36.266;32.294;2023-11-18T03:53:03;4.93;;;1.95;;
77955;SDS011;67152;36.266;32.294;2023-11-18T03:55:47;5.88;;;1.77;;
77955;SDS011;67152;36.266;32.294;2023-11-18T03:58:32;3.10;;;1.63;;
77955;SDS011;67152;36.266;32.294;2023-11-18T04:01:24;5.95;;;2.10;;
77955;SDS011;67152;36.266;32.294;2023-11-18T04:04:12;7.30;;;2.33;;
77955;SDS011;67152;36.266;32.294;2023-11-18T04:06:57;6.78;;;2.30;;
77955;SDS011;67152;36.266;32.294;2023-11-18T04:09:43;6.20;;;2.33;;
77955;SDS011;67152;36.266;32.294;2023-11-18T04:12:28;6.18;;;2.60;;
77955;SDS011;67152;36.266;32.294;2023-11-18T04:15:14;9.43;;;2.65;;
77955;SDS011;67152;36.266;32.294;2023-11-18T04:18:02;8.07;;;2.33;;
77955;SDS011;67152;36.266;32.294;2023-11-18T04:20:47;7.55;;;2.30;;
77955;SDS011;67152;36.266;32.294;2023-11-18T04:23:33;8.05;;;3.22;;
77955;SDS011;67152;36.266;32.294;2023-11-18T04:26:18;7.70;;;3.03;;
77955;SDS011;67152;36.266;32.294;2023-11-18T04:29:03;6.38;;;2.50;;
77955;SDS011;67152;36.266;32.294;2023-11-18T04:31:48;7.05;;;2.13;;
77955;SDS011;67152;36.266;32.294;2023-11-18T04:34:36;6.65;;;2.63;;
77955;SDS011;67152;36.266;32.294;2023-11-18T04:37:21;6.18;;;2.38;;
77955;SDS011;67152;36.266;32.294;2023-11-18T04:40:07;4.70;;;2.10;;
77955;SDS011;67152;36.266;32.294;2023-11-18T04:42:53;7.50;;;2.25;;
77955;SDS011;67152;36.266;32.294;2023-11-18T04:45:38;3.78;;;2.10;;
77955;SDS011;67152;36.266;32.294;2023-11-18T04:48:25;5.28;;;2.22;;
77955;SDS011;67152;36.266;32.294;2023-11-18T04:51:10;5.85;;;2.40;;
77955;SDS011;67152;36.266;32.294;2023-11-18T04:53:56;7.15;;;2.05;;
77955;SDS011;67152;36.266;32.294;2023-11-18T04:56:41;4.43;;;1.98;;
77955;SDS011;67152;36.266;32.294;2023-11-18T04:59:25;12.20;;;2.47;;
77955;SDS011;67152;36.266;32.294;2023-11-18T05:02:10;3.92;;;2.08;;
77955;SDS011;67152;36.266;32.294;2023-11-18T05:04:55;3.67;;;1.77;;
77955;SDS011;67152;36.266;32.294;2023-11-18T05:07:40;4.65;;;2.10;;
77955;SDS011;67152;36.266;32.294;2023-11-18T05:10:26;7.00;;;2.55;;
77955;SDS011;67152;36.266;32.294;2023-11-18T05:13:11;7.50;;;2.25;;
77955;SDS011;67152;36.266;32.294;2023-11-18T05:15:57;6.03;;;2.00;;
77955;SDS011;67152;36.266;32.294;2023-11-18T05:18:41;5.55;;;2.50;;
77955;SDS011;67152;36.266;32.294;2023-11-18T05:21:27;4.95;;;2.25;;
77955;SDS011;67152;36.266;32.294;2023-11-18T05:24:12;5.05;;;2.28;;
77955;SDS011;67152;36.266;32.294;2023-11-18T05:26:57;7.97;;;2.10;;
77955;SDS011;67152;36.266;32.294;2023-11-18T05:29:45;5.53;;;2.33;;
77955;SDS011;67152;36.266;32.294;2023-11-18T05:32:32;10.57;;;2.85;;
77955;SDS011;67152;36.266;32.294;2023-11-18T05:35:17;6.88;;;2.17;;
77955;SDS011;67152;36.266;32.294;2023-11-18T05:38:02;5.95;;;2.90;;
77955;SDS011;67152;36.266;32.294;2023-11-18T05:40:48;13.57;;;3.50;;
77955;SDS011;67152;36.266;32.294;2023-11-18T05:43:45;13.45;;;3.10;;
77955;SDS011;67152;36.266;32.294;2023-11-18T05:46:35;13.13;;;3.38;;
77955;SDS011;67152;36.266;32.294;2023-11-18T05:49:22;9.70;;;2.42;;
77955;SDS011;67152;36.266;32.294;2023-11-18T05:52:08;17.63;;;2.95;;
77955;SDS011;67152;36.266;32.294;2023-11-18T05:54:53;6.65;;;2.28;;
77955;SDS011;67152;36.266;32.294;2023-11-18T05:57:38;12.93;;;2.47;;
77955;SDS011;67152;36.266;32.294;2023-11-18T06:00:23;8.82;;;2.47;;
77955;SDS011;67152;36.266;32.294;2023-11-18T06:03:08;12.70;;;2.90;;
77955;SDS011;67152;36.266;32.294;2023-11-18T06:05:55;13.50;;;2.85;;
77955;SDS011;67152;36.266;32.294;2023-11-18T06:08:40;10.00;;;2.85;;
77955;SDS011;67152;36.266;32.294;2023-11-18T06:11:26;8.68;;;2.00;;
77955;SDS011;67152;36.266;32.294;2023-11-18T06:14:33;15.45;;;3.58;;
77955;SDS011;67152;36.266;32.294;2023-11-18T06:17:18;6.57;;;2.58;;
77955;SDS011;67152;36.266;32.294;2023-11-18T06:20:03;8.68;;;2.72;;
77955;SDS011;67152;36.266;32.294;2023-11-18T06:22:50;10.18;;;2.60;;
77955;SDS011;67152;36.266;32.294;2023-11-18T06:25:35;9.05;;;2.58;;
77955;SDS011;67152;36.266;32.294;2023-11-18T06:28:21;10.30;;;2.47;;
77955;SDS011;67152;36.266;32.294;2023-11-18T06:31:06;14.48;;;2.90;;
77955;SDS011;67152;36.266;32.294;2023-11-18T06:33:52;7.95;;;2.95;;
77955;SDS011;67152;36.266;32.294;2023-11-18T06:36:38;14.93;;;2.83;;
77955;SDS011;67152;36.266;32.294;2023-11-18T06:39:22;11.48;;;3.50;;
77955;SDS011;67152;36.266;32.294;2023-11-18T06:42:13;10.10;;;3.42;;
77955;SDS011;67152;36.266;32.294;2023-11-18T06:44:58;18.80;;;3.55;;
77955;SDS011;67152;36.266;32.294;2023-11-18T06:47:44;4.78;;;1.65;;
77955;SDS011;67152;36.266;32.294;2023-11-18T06:50:29;6.95;;;1.95;;
77955;SDS011;67152;36.266;32.294;2023-11-18T06:53:14;7.95;;;1.70;;
77955;SDS011;67152;36.266;32.294;2023-11-18T06:55:59;11.27;;;1.17;;
77955;SDS011;67152;36.266;32.294;2023-11-18T06:58:44;4.00;;;1.13;;
77955;SDS011;67152;36.266;32.294;2023-11-18T07:01:28;5.72;;;1.45;;
77955;SDS011;67152;36.266;32.294;2023-11-18T07:04:14;10.70;;;1.45;;
77955;SDS011;67152;36.266;32.294;2023-11-18T07:06:59;15.35;;;1.25;;
77955;SDS011;67152;36.266;32.294;2023-11-18T07:09:45;1.67;;;0.80;;
77955;SDS011;67152;36.266;32.294;2023-11-18T07:12:34;3.65;;;0.90;;
77955;SDS011;67152;36.266;32.294;2023-11-18T07:15:22;7.25;;;1.38;;
77955;SDS011;67152;36.266;32.294;2023-11-18T07:18:07;3.15;;;1.45;;
77955;SDS011;67152;36.266;32.294;2023-11-18T07:20:53;2.95;;;0.95;;
77955;SDS011;67152;36.266;32.294;2023-11-18T07:23:37;8.40;;;1.23;;
77955;SDS011;67152;36.266;32.294;2023-11-18T07:26:22;1.15;;;0.57;;
77955;SDS011;67152;36.266;32.294;2023-11-18T07:29:08;4.82;;;1.45;;
77955;SDS011;67152;36.266;32.294;2023-11-18T07:31:53;6.22;;;0.93;;
77955;SDS011;67152;36.266;32.294;2023-11-18T07:34:41;5.60;;;1.27;;
77955;SDS011;67152;36.266;32.294;2023-11-18T07:37:26;7.15;;;0.93;;
77955;SDS011;67152;36.266;32.294;2023-11-18T07:40:11;2.55;;;0.77;;
77955;SDS011;67152;36.266;32.294;2023-11-18T07:42:56;11.90;;;1.55;;
77955;SDS011;67152;36.266;32.294;2023-11-18T07:45:41;5.85;;;1.55;;
77955;SDS011;67152;36.266;32.294;2023-11-18T07:48:31;3.63;;;1.00;;
77955;SDS011;67152;36.266;32.294;2023-11-18T07:51:16;3.33;;;1.10;;
77955;SDS011;67152;36.266;32.294;2023-11-18T07:54:01;2.10;;;0.65;;
77955;SDS011;67152;36.266;32.294;2023-11-18T07:56:47;7.00;;;1.05;;
77955;SDS011;67152;36.266;32.294;2023-11-18T07:59:32;9.05;;;1.20;;
77955;SDS011;67152;36.266;32.294;2023-11-18T08:02:17;20.58;;;2.78;;
77955;SDS011;67152;36.266;32.294;2023-11-18T08:05:04;0.85;;;0.68;;
77955;SDS011;67152;36.266;32.294;2023-11-18T08:07:53;9.32;;;1.10;;
77955;SDS011;67152;36.266;32.294;2023-11-18T08:10:38;3.35;;;1.10;;
77955;SDS011;67152;36.266;32.294;2023-11-18T08:13:24;5.05;;;0.85;;
77955;SDS011;67152;36.266;32.294;2023-11-18T08:16:09;6.85;;;1.10;;
77955;SDS011;67152;36.266;32.294;2023-11-18T08:18:55;5.10;;;1.52;;
77955;SDS011;67152;36.266;32.294;2023-11-18T08:21:40;5.88;;;1.30;;
77955;SDS011;67152;36.266;32.294;2023-11-18T08:24:25;2.40;;;0.90;;
77955;SDS011;67152;36.266;32.294;2023-11-18T08:27:10;3.80;;;0.70;;
77955;SDS011;67152;36.266;32.294;2023-11-18T08:29:55;4.93;;;0.70;;
77955;SDS011;67152;36.266;32.294;2023-11-18T08:32:40;3.83;;;1.95;;
77955;SDS011;67152;36.266;32.294;2023-11-18T08:35:29;13.80;;;1.70;;
77955;SDS011;67152;36.266;32.294;2023-11-18T08:38:15;1.05;;;0.50;;
77955;SDS011;67152;36.266;32.294;2023-11-18T08:41:00;3.10;;;0.82;;
77955;SDS011;67152;36.266;32.294;2023-11-18T08:43:45;2.58;;;0.60;;
77955;SDS011;67152;36.266;32.294;2023-11-18T08:46:33;3.78;;;1.00;;
77955;SDS011;67152;36.266;32.294;2023-11-18T08:49:18;2.55;;;1.10;;
77955;SDS011;67152;36.266;32.294;2023-11-18T08:52:06;5.53;;;1.20;;
77955;SDS011;67152;36.266;32.294;2023-11-18T08:54:54;2.58;;;0.80;;
77955;SDS011;67152;36.266;32.294;2023-11-18T08:57:58;1.27;;;0.60;;
77955;SDS011;67152;36.266;32.294;2023-11-18T09:00:43;4.60;;;0.60;;
77955;SDS011;67152;36.266;32.294;2023-11-18T09:03:32;4.25;;;0.68;;
77955;SDS011;67152;36.266;32.294;2023-11-18T09:06:20;4.57;;;0.80;;
77955;SDS011;67152;36.266;32.294;2023-11-18T09:09:10;6.05;;;1.23;;
77955;SDS011;67152;36.266;32.294;2023-11-18T09:14:41;2.40;;;1.00;;
77955;SDS011;67152;36.266;32.294;2023-11-18T09:17:27;6.05;;;1.20;;
77955;SDS011;67152;36.266;32.294;2023-11-18T09:20:12;4.22;;;1.00;;
77955;SDS011;67152;36.266;32.294;2023-11-18T09:23:04;10.88;;;0.63;;
77955;SDS011;67152;36.266;32.294;2023-11-18T09:25:51;2.30;;;0.85;;
77955;SDS011;67152;36.266;32.294;2023-11-18T09:28:37;2.38;;;1.08;;
77955;SDS011;67152;36.266;32.294;2023-11-18T09:31:22;9.00;;;0.95;;
77955;SDS011;67152;36.266;32.294;2023-11-18T09:34:08;2.20;;;0.90;;
77955;SDS011;67152;36.266;32.294;2023-11-18T09:36:59;3.90;;;0.80;;
77955;SDS011;67152;36.266;32.294;2023-11-18T09:39:44;2.88;;;0.80;;
77955;SDS011;67152;36.266;32.294;2023-11-18T09:42:30;2.40;;;0.77;;
77955;SDS011;67152;36.266;32.294;2023-11-18T09:45:16;2.97;;;0.98;;
77955;SDS011;67152;36.266;32.294;2023-11-18T09:48:04;10.93;;;2.05;;
77955;SDS011;67152;36.266;32.294;2023-11-18T09:50:52;5.70;;;0.90;;
77955;SDS011;67152;36.266;32.294;2023-11-18T09:53:37;3.70;;;0.77;;
77955;SDS011;67152;36.266;32.294;2023-11-18T09:56:59;28.13;;;1.88;;
77955;SDS011;67152;36.266;32.294;2023-11-18T10:00:06;7.85;;;1.55;;
77955;SDS011;67152;36.266;32.294;2023-11-18T10:03:03;7.43;;;1.08;;
77955;SDS011;67152;36.266;32.294;2023-11-18T10:05:52;6.97;;;1.23;;
77955;SDS011;67152;36.266;32.294;2023-11-18T10:08:38;8.38;;;1.73;;
77955;SDS011;67152;36.266;32.294;2023-11-18T10:11:23;38.88;;;4.03;;
77955;SDS011;67152;36.266;32.294;2023-11-18T10:14:10;37.03;;;5.60;;
77955;SDS011;67152;36.266;32.294;2023-11-18T10:16:55;19.13;;;3.58;;
77955;SDS011;67152;36.266;32.294;2023-11-18T10:19:51;6.70;;;1.70;;
77955;SDS011;67152;36.266;32.294;2023-11-18T10:22:36;10.15;;;2.13;;
77955;SDS011;67152;36.266;32.294;2023-11-18T10:25:28;5.45;;;1.98;;
77955;SDS011;67152;36.266;32.294;2023-11-18T10:28:21;15.32;;;2.33;;
77955;SDS011;67152;36.266;32.294;2023-11-18T10:31:11;15.50;;;2.38;;
77955;SDS011;67152;36.266;32.294;2023-11-18T10:34:06;12.85;;;3.33;;
77955;SDS011;67152;36.266;32.294;2023-11-18T10:37:04;10.45;;;2.17;;
77955;SDS011;67152;36.266;32.294;2023-11-18T10:39:50;7.03;;;1.83;;
77955;SDS011;67152;36.266;32.294;2023-11-18T10:42:38;6.25;;;1.45;;
77955;SDS011;67152;36.266;32.294;2023-11-18T10:45:23;5.22;;;1.63;;
77955;SDS011;67152;36.266;32.294;2023-11-18T10:48:12;5.22;;;1.42;;
77955;SDS011;67152;36.266;32.294;2023-11-18T10:51:00;2.65;;;1.35;;
77955;SDS011;67152;36.266;32.294;2023-11-18T10:53:49;4.15;;;1.45;;
77955;SDS011;67152;36.266;32.294;2023-11-18T10:56:48;10.93;;;2.35;;
77955;SDS011;67152;36.266;32.294;2023-11-18T10:59:36;7.88;;;2.30;;
77955;SDS011;67152;36.266;32.294;2023-11-18T11:02:48;8.68;;;3.10;;
77955;SDS011;67152;36.266;32.294;2023-11-18T11:05:42;14.75;;;3.35;;
77955;SDS011;67152;36.266;32.294;2023-11-18T11:08:28;10.52;;;2.00;;
77955;SDS011;67152;36.266;32.294;2023-11-18T11:11:13;10.98;;;3.42;;
77955;SDS011;67152;36.266;32.294;2023-11-18T11:14:00;8.32;;;2.90;;
77955;SDS011;67152;36.266;32.294;2023-11-18T11:16:51;10.98;;;3.40;;
77955;SDS011;67152;36.266;32.294;2023-11-18T11:26:56;4.80;;;1.60;;
77955;SDS011;67152;36.266;32.294;2023-11-18T11:32:59;3.45;;;1.85;;
77955;SDS011;67152;36.266;32.294;2023-11-18T11:35:49;8.65;;;2.58;;
77955;SDS011;67152;36.266;32.294;2023-11-18T11:38:39;11.23;;;3.30;;
77955;SDS011;67152;36.266;32.294;2023-11-18T11:41:30;10.18;;;3.70;;
77955;SDS011;67152;36.266;32.294;2023-11-18T11:44:21;14.48;;;5.78;;
77955;SDS011;67152;36.266;32.294;2023-11-18T11:47:15;14.15;;;5.55;;
77955;SDS011;67152;36.266;32.294;2023-11-18T11:50:09;19.73;;;6.03;;
77955;SDS011;67152;36.266;32.294;2023-11-18T11:53:16;16.58;;;5.45;;
77955;SDS011;67152;36.266;32.294;2023-11-18T11:56:07;9.10;;;3.83;;
77955;SDS011;67152;36.266;32.294;2023-11-18T11:58:57;17.60;;;4.88;;
77955;SDS011;67152;36.266;32.294;2023-11-18T12:01:44;10.97;;;3.70;;
77955;SDS011;67152;36.266;32.294;2023-11-18T12:04:36;15.55;;;3.70;;
77955;SDS011;67152;36.266;32.294;2023-11-18T12:07:22;7.65;;;2.92;;
77955;SDS011;67152;36.266;32.294;2023-11-18T12:10:12;38.00;;;6.72;;
77955;SDS011;67152;36.266;32.294;2023-11-18T12:13:13;31.85;;;7.53;;
77955;SDS011;67152;36.266;32.294;2023-11-18T12:16:01;36.72;;;5.53;;
77955;SDS011;67152;36.266;32.294;2023-11-18T12:19:28;28.98;;;4.97;;
77955;SDS011;67152;36.266;32.294;2023-11-18T12:25:48;40.30;;;5.93;;
77955;SDS011;67152;36.266;32.294;2023-11-18T12:28:38;23.08;;;4.43;;
77955;SDS011;67152;36.266;32.294;2023-11-18T12:31:39;12.00;;;3.75;;
77955;SDS011;67152;36.266;32.294;2023-11-18T12:34:24;13.45;;;2.75;;
77955;SDS011;67152;36.266;32.294;2023-11-18T12:43:47;7.22;;;1.27;;
77955;SDS011;67152;36.266;32.294;2023-11-18T12:50:06;11.52;;;2.30;;
77955;SDS011;67152;36.266;32.294;2023-11-18T12:53:01;17.65;;;3.40;;
77955;SDS011;67152;36.266;32.294;2023-11-18T12:55:46;9.63;;;1.88;;
77955;SDS011;67152;36.266;32.294;2023-11-18T12:58:32;10.32;;;2.67;;
77955;SDS011;67152;36.266;32.294;2023-11-18T13:01:17;13.35;;;2.20;;
77955;SDS011;67152;36.266;32.294;2023-11-18T13:04:03;12.18;;;2.30;;
77955;SDS011;67152;36.266;32.294;2023-11-18T13:06:48;8.48;;;1.73;;
77955;SDS011;67152;36.266;32.294;2023-11-18T13:09:35;10.95;;;2.08;;
77955;SDS011;67152;36.266;32.294;2023-11-18T13:12:20;15.35;;;2.40;;
77955;SDS011;67152;36.266;32.294;2023-11-18T13:15:07;9.65;;;2.15;;
77955;SDS011;67152;36.266;32.294;2023-11-18T13:17:57;14.10;;;2.87;;
77955;SDS011;67152;36.266;32.294;2023-11-18T13:20:53;16.65;;;3.30;;
77955;SDS011;67152;36.266;32.294;2023-11-18T13:23:45;14.95;;;2.20;;
77955;SDS011;67152;36.266;32.294;2023-11-18T13:26:34;16.92;;;3.15;;
77955;SDS011;67152;36.266;32.294;2023-11-18T13:29:19;17.45;;;3.17;;
77955;SDS011;67152;36.266;32.294;2023-11-18T13:32:06;13.93;;;2.95;;
77955;SDS011;67152;36.266;32.294;2023-11-18T13:34:51;19.40;;;4.53;;
77955;SDS011;67152;36.266;32.294;2023-11-18T13:37:36;18.52;;;3.17;;
77955;SDS011;67152;36.266;32.294;2023-11-18T13:40:21;17.55;;;3.80;;
77955;SDS011;67152;36.266;32.294;2023-11-18T13:43:07;10.93;;;2.60;;
77955;SDS011;67152;36.266;32.294;2023-11-18T13:45:52;21.05;;;3.05;;
77955;SDS011;67152;36.266;32.294;2023-11-18T13:48:39;22.10;;;3.13;;
77955;SDS011;67152;36.266;32.294;2023-11-18T13:54:10;16.42;;;3.20;;
77955;SDS011;67152;36.266;32.294;2023-11-18T13:56:57;19.57;;;3.17;;
77955;SDS011;67152;36.266;32.294;2023-11-18T14:02:28;22.67;;;3.63;;
77955;SDS011;67152;36.266;32.294;2023-11-18T14:05:17;20.85;;;3.63;;
77955;SDS011;67152;36.266;32.294;2023-11-18T14:08:03;22.35;;;3.70;;
77955;SDS011;67152;36.266;32.294;2023-11-18T14:10:52;16.88;;;3.15;;
77955;SDS011;67152;36.266;32.294;2023-11-18T14:13:38;22.90;;;3.50;;
77955;SDS011;67152;36.266;32.294;2023-11-18T14:16:23;15.40;;;3.17;;
77955;SDS011;67152;36.266;32.294;2023-11-18T14:19:08;20.55;;;3.10;;
77955;SDS011;67152;36.266;32.294;2023-11-18T14:21:53;21.40;;;3.20;;
77955;SDS011;67152;36.266;32.294;2023-11-18T14:24:38;16.33;;;3.30;;
77955;SDS011;67152;36.266;32.294;2023-11-18T14:27:24;16.33;;;3.25;;
77955;SDS011;67152;36.266;32.294;2023-11-18T14:30:09;15.23;;;2.72;;
77955;SDS011;67152;36.266;32.294;2023-11-18T14:33:01;17.10;;;2.45;;
77955;SDS011;67152;36.266;32.294;2023-11-18T14:35:46;16.75;;;3.15;;
77955;SDS011;67152;36.266;32.294;2023-11-18T14:38:40;28.67;;;4.00;;
77955;SDS011;67152;36.266;32.294;2023-11-18T14:41:25;21.88;;;4.85;;
77955;SDS011;67152;36.266;32.294;2023-11-18T14:44:10;29.73;;;4.88;;
77955;SDS011;67152;36.266;32.294;2023-11-18T14:46:55;20.40;;;3.95;;
77955;SDS011;67152;36.266;32.294;2023-11-18T14:50:01;16.33;;;3.45;;
77955;SDS011;67152;36.266;32.294;2023-11-18T14:52:47;23.63;;;3.67;;
77955;SDS011;67152;36.266;32.294;2023-11-18T14:55:38;25.48;;;4.00;;
77955;SDS011;67152;36.266;32.294;2023-11-18T14:58:24;27.17;;;4.90;;
77955;SDS011;67152;36.266;32.294;2023-11-18T15:01:10;14.60;;;2.75;;
77955;SDS011;67152;36.266;32.294;2023-11-18T15:03:55;17.55;;;3.88;;
77955;SDS011;67152;36.266;32.294;2023-11-18T15:06:40;27.38;;;4.68;;
77955;SDS011;67152;36.266;32.294;2023-11-18T15:09:25;24.20;;;4.40;;
77955;SDS011;67152;36.266;32.294;2023-11-18T15:12:15;14.60;;;2.40;;
77955;SDS011;67152;36.266;32.294;2023-11-18T15:15:00;18.23;;;3.00;;
77955;SDS011;67152;36.266;32.294;2023-11-18T15:17:48;29.45;;;4.80;;
77955;SDS011;67152;36.266;32.294;2023-11-18T15:20:33;30.80;;;6.10;;
77955;SDS011;67152;36.266;32.294;2023-11-18T15:23:20;23.73;;;4.10;;
77955;SDS011;67152;36.266;32.294;2023-11-18T15:26:13;26.33;;;3.63;;
77955;SDS011;67152;36.266;32.294;2023-11-18T15:29:04;20.05;;;5.38;;
77955;SDS011;67152;36.266;32.294;2023-11-18T15:31:59;19.80;;;3.17;;
77955;SDS011;67152;36.266;32.294;2023-11-18T15:35:00;25.67;;;5.13;;
77955;SDS011;67152;36.266;32.294;2023-11-18T15:37:45;32.00;;;6.72;;
77955;SDS011;67152;36.266;32.294;2023-11-18T15:40:30;38.38;;;5.80;;
77955;SDS011;67152;36.266;32.294;2023-11-18T15:43:24;40.10;;;6.97;;
77955;SDS011;67152;36.266;32.294;2023-11-18T15:46:10;30.88;;;6.07;;
77955;SDS011;67152;36.266;32.294;2023-11-18T15:48:55;23.33;;;3.88;;
77955;SDS011;67152;36.266;32.294;2023-11-18T15:51:40;23.35;;;3.45;;
77955;SDS011;67152;36.266;32.294;2023-11-18T15:54:25;27.45;;;4.38;;
77955;SDS011;67152;36.266;32.294;2023-11-18T15:57:10;35.97;;;4.50;;
77955;SDS011;67152;36.266;32.294;2023-11-18T15:59:55;37.92;;;5.75;;
77955;SDS011;67152;36.266;32.294;2023-11-18T16:02:41;41.38;;;6.63;;
77955;SDS011;67152;36.266;32.294;2023-11-18T16:05:28;35.80;;;5.35;;
77955;SDS011;67152;36.266;32.294;2023-11-18T16:08:17;29.40;;;5.57;;
77955;SDS011;67152;36.266;32.294;2023-11-18T16:11:03;30.42;;;4.90;;
77955;SDS011;67152;36.266;32.294;2023-11-18T16:13:49;27.00;;;4.50;;
77955;SDS011;67152;36.266;32.294;2023-11-18T16:16:36;28.52;;;5.03;;
77955;SDS011;67152;36.266;32.294;2023-11-18T16:19:22;41.05;;;5.85;;
77955;SDS011;67152;36.266;32.294;2023-11-18T16:22:07;32.38;;;5.53;;
77955;SDS011;67152;36.266;32.294;2023-11-18T16:24:53;24.50;;;4.50;;
77955;SDS011;67152;36.266;32.294;2023-11-18T16:27:38;24.50;;;4.43;;
77955;SDS011;67152;36.266;32.294;2023-11-18T16:30:23;23.35;;;3.38;;
77955;SDS011;67152;36.266;32.294;2023-11-18T16:33:16;22.63;;;3.83;;
77955;SDS011;67152;36.266;32.294;2023-11-18T16:36:04;22.45;;;4.18;;
77955;SDS011;67152;36.266;32.294;2023-11-18T16:42:51;26.13;;;4.35;;
77955;SDS011;67152;36.266;32.294;2023-11-18T16:45:40;21.65;;;4.03;;
77955;SDS011;67152;36.266;32.294;2023-11-18T16:48:25;27.50;;;4.07;;
77955;SDS011;67152;36.266;32.294;2023-11-18T16:51:10;28.00;;;3.97;;
77955;SDS011;67152;36.266;32.294;2023-11-18T16:53:55;28.25;;;4.55;;
77955;SDS011;67152;36.266;32.294;2023-11-18T16:56:40;29.48;;;4.95;;
77955;SDS011;67152;36.266;32.294;2023-11-18T16:59:25;27.42;;;5.53;;
77955;SDS011;67152;36.266;32.294;2023-11-18T17:02:10;24.65;;;5.57;;